createdAt,value
2018-08-27T00:00:41.020Z,1.43
2018-08-27T00:02:44.599Z,2.30
2018-08-27T00:04:48.109Z,1.87
2018-08-27T00:06:51.603Z,1.80
2018-08-27T00:08:55.100Z,2.67
2018-08-27T00:10:58.653Z,0.80
2018-08-27T00:13:03.264Z,1.20
2018-08-27T00:15:07.371Z,1.23
2018-08-27T00:17:10.904Z,2.33
2018-08-27T00:19:14.428Z,1.73
2018-08-27T00:21:17.920Z,2.30
2018-08-27T00:23:21.456Z,2.77
2018-08-27T00:25:24.987Z,1.73
2018-08-27T00:27:28.664Z,1.90
2018-08-27T00:29:32.203Z,2.60
2018-08-27T00:31:35.722Z,2.10
2018-08-27T00:33:39.279Z,1.00
2018-08-27T00:35:42.937Z,1.97
2018-08-27T00:37:46.475Z,3.93
2018-08-27T00:39:56.489Z,2.93
2018-08-27T00:41:59.983Z,3.93
2018-08-27T00:44:03.562Z,2.17
2018-08-27T00:46:07.480Z,4.30
2018-08-27T00:48:11.015Z,1.43
2018-08-27T00:50:14.897Z,1.97
2018-08-27T00:52:19.295Z,2.37
2018-08-27T00:54:22.855Z,2.90
2018-08-27T00:56:26.333Z,3.60
2018-08-27T00:58:29.928Z,1.87
2018-08-27T01:00:33.449Z,1.77
2018-08-27T01:02:37.026Z,4.50
2018-08-27T01:04:40.590Z,2.80
2018-08-27T01:06:44.188Z,1.27
2018-08-27T01:08:47.735Z,1.60
2018-08-27T01:10:51.336Z,1.60
2018-08-27T01:12:54.844Z,2.10
2018-08-27T01:14:58.380Z,1.90
2018-08-27T01:17:01.948Z,2.40
2018-08-27T01:19:05.661Z,1.37
2018-08-27T01:21:09.152Z,1.50
2018-08-27T01:23:12.704Z,1.97
2018-08-27T01:25:16.217Z,1.10
2018-08-27T01:27:19.778Z,1.60
2018-08-27T01:29:23.281Z,1.00
2018-08-27T01:31:26.843Z,1.43
2018-08-27T01:33:30.392Z,3.40
2018-08-27T01:35:33.948Z,1.83
2018-08-27T01:37:37.463Z,2.03
2018-08-27T01:39:41.025Z,2.83
2018-08-27T01:41:44.552Z,2.30
2018-08-27T01:43:48.115Z,2.53
2018-08-27T01:45:51.610Z,1.87
2018-08-27T01:47:55.104Z,1.60
2018-08-27T01:49:58.688Z,3.17
2018-08-27T01:52:02.197Z,2.73
2018-08-27T01:54:05.878Z,3.17
2018-08-27T01:56:09.468Z,1.97
2018-08-27T01:58:13.060Z,2.70
2018-08-27T02:00:16.597Z,2.77
2018-08-27T02:02:20.254Z,1.30
2018-08-27T02:04:23.819Z,2.20
2018-08-27T02:06:31.477Z,1.50
2018-08-27T02:08:35.012Z,1.60
2018-08-27T02:10:38.537Z,2.03
2018-08-27T02:12:42.079Z,2.63
2018-08-27T02:14:45.576Z,1.53
2018-08-27T02:16:49.123Z,1.73
2018-08-27T02:18:52.668Z,1.20
2018-08-27T02:20:56.177Z,1.87
2018-08-27T02:22:59.680Z,1.50
2018-08-27T02:25:03.256Z,2.30
2018-08-27T02:27:06.728Z,4.83
2018-08-27T02:29:10.271Z,2.20
2018-08-27T02:31:13.814Z,2.50
2018-08-27T02:33:17.318Z,1.00
2018-08-27T02:35:20.938Z,2.83
2018-08-27T02:37:24.435Z,2.00
2018-08-27T02:39:27.990Z,2.93
2018-08-27T02:41:31.560Z,1.83
2018-08-27T02:43:35.130Z,1.57
2018-08-27T02:45:38.685Z,1.80
2018-08-27T02:47:42.229Z,2.40
2018-08-27T02:49:45.815Z,1.43
2018-08-27T02:51:49.375Z,1.87
2018-08-27T02:53:52.925Z,1.10
2018-08-27T02:55:56.483Z,2.07
2018-08-27T02:58:00.036Z,1.47
2018-08-27T03:00:03.641Z,1.83
2018-08-27T03:02:07.336Z,2.23
2018-08-27T03:04:10.925Z,2.10
2018-08-27T03:06:14.486Z,2.70
2018-08-27T03:08:18.056Z,1.83
2018-08-27T03:10:21.615Z,3.80
2018-08-27T03:12:25.071Z,1.63
2018-08-27T03:14:28.639Z,3.70
2018-08-27T03:16:32.359Z,1.43
2018-08-27T03:18:35.977Z,2.07
2018-08-27T03:20:39.639Z,1.77
2018-08-27T03:22:43.191Z,1.43
2018-08-27T03:24:46.852Z,1.77
2018-08-27T03:26:53.458Z,1.43
2018-08-27T03:28:57.036Z,2.07
2018-08-27T03:31:00.528Z,2.93
2018-08-27T03:33:04.125Z,1.30
2018-08-27T03:35:07.748Z,1.90
2018-08-27T03:37:11.264Z,1.67
2018-08-27T03:39:14.756Z,1.13
2018-08-27T03:41:18.314Z,2.30
2018-08-27T03:43:21.832Z,2.60
2018-08-27T03:45:25.343Z,1.77
2018-08-27T03:47:28.865Z,1.37
2018-08-27T03:49:32.412Z,1.53
2018-08-27T03:51:35.935Z,1.40
2018-08-27T03:53:39.455Z,2.10
2018-08-27T03:55:42.986Z,3.43
2018-08-27T03:57:46.463Z,1.30
2018-08-27T03:59:49.978Z,1.67
2018-08-27T04:01:53.516Z,2.23
2018-08-27T04:03:57.068Z,1.83
2018-08-27T04:06:00.675Z,1.30
2018-08-27T04:08:04.225Z,2.27
2018-08-27T04:10:07.796Z,2.13
2018-08-27T04:12:11.302Z,3.10
2018-08-27T04:14:14.820Z,1.57
2018-08-27T04:16:18.285Z,1.30
2018-08-27T04:18:21.749Z,1.93
2018-08-27T04:20:25.346Z,3.33
2018-08-27T04:22:29.046Z,2.70
2018-08-27T04:24:32.560Z,4.20
2018-08-27T04:26:36.101Z,1.30
2018-08-27T04:28:39.640Z,2.23
2018-08-27T04:30:43.375Z,1.30
2018-08-27T04:32:47.687Z,1.93
2018-08-27T04:34:53.199Z,2.20
2018-08-27T04:36:57.554Z,5.00
2018-08-27T04:39:02.302Z,1.93
2018-08-27T04:41:06.593Z,3.43
2018-08-27T04:43:11.401Z,4.40
2018-08-27T04:45:15.076Z,3.63
2018-08-27T04:47:18.691Z,2.13
2018-08-27T04:49:22.315Z,2.77
2018-08-27T04:51:25.989Z,1.97
2018-08-27T04:53:29.606Z,2.30
2018-08-27T04:55:33.823Z,1.73
2018-08-27T04:57:37.512Z,1.93
2018-08-27T04:59:50.580Z,2.77
2018-08-27T05:01:54.280Z,2.53
2018-08-27T05:03:57.839Z,2.17
2018-08-27T05:06:01.513Z,3.73
2018-08-27T05:08:05.231Z,4.03
2018-08-27T05:10:08.895Z,1.67
2018-08-27T05:12:12.537Z,4.57
2018-08-27T05:14:16.095Z,3.33
2018-08-27T05:16:19.810Z,4.37
2018-08-27T05:18:23.565Z,5.27
2018-08-27T05:20:27.409Z,3.93
2018-08-27T05:22:31.054Z,3.97
2018-08-27T05:24:34.611Z,4.40
2018-08-27T05:26:38.199Z,5.30
2018-08-27T05:28:41.883Z,4.63
2018-08-27T05:30:45.518Z,3.23
2018-08-27T05:32:49.134Z,4.47
2018-08-27T05:34:52.880Z,3.60
2018-08-27T05:36:56.375Z,4.13
2018-08-27T05:38:59.992Z,3.83
2018-08-27T05:41:04.653Z,4.57
2018-08-27T05:43:08.732Z,3.80
2018-08-27T05:45:12.385Z,4.63
2018-08-27T05:47:15.945Z,3.17
2018-08-27T05:49:19.591Z,2.40
2018-08-27T05:51:23.203Z,5.57
2018-08-27T05:53:26.782Z,4.20
2018-08-27T05:55:30.444Z,3.17
2018-08-27T05:57:34.175Z,4.13
2018-08-27T05:59:37.876Z,4.60
2018-08-27T06:01:41.630Z,5.67
2018-08-27T06:03:45.284Z,3.67
2018-08-27T06:05:49.020Z,3.40
2018-08-27T06:07:52.668Z,5.70
2018-08-27T06:09:56.238Z,5.50
2018-08-27T06:11:59.799Z,3.13
2018-08-27T06:14:03.416Z,4.30
2018-08-27T06:16:08.090Z,4.43
2018-08-27T06:18:11.831Z,3.07
2018-08-27T06:20:15.496Z,2.93
2018-08-27T06:22:19.238Z,3.13
2018-08-27T06:24:22.845Z,4.00
2018-08-27T06:26:26.409Z,4.57
2018-08-27T06:28:30.034Z,3.87
2018-08-27T06:30:33.689Z,3.63
2018-08-27T06:32:37.318Z,3.20
2018-08-27T06:34:41.012Z,3.23
2018-08-27T06:36:44.628Z,4.80
2018-08-27T06:38:48.309Z,3.33
2018-08-27T06:40:52.312Z,2.77
2018-08-27T06:42:55.890Z,5.00
2018-08-27T06:44:59.536Z,2.93
2018-08-27T06:47:04.000Z,3.13
2018-08-27T06:49:07.627Z,3.47
2018-08-27T06:51:11.402Z,3.43
2018-08-27T06:53:15.543Z,3.10
2018-08-27T06:55:19.171Z,6.37
2018-08-27T06:57:22.773Z,1.90
2018-08-27T06:59:26.432Z,2.67
2018-08-27T07:01:30.099Z,5.53
2018-08-27T07:03:33.767Z,2.63
2018-08-27T07:05:37.344Z,3.43
2018-08-27T07:07:41.208Z,2.07
2018-08-27T07:09:44.938Z,3.33
2018-08-27T07:11:48.559Z,1.97
2018-08-27T07:13:52.325Z,3.37
2018-08-27T07:15:55.796Z,3.20
2018-08-27T07:17:59.537Z,4.47
2018-08-27T07:20:03.518Z,4.80
2018-08-27T07:22:07.301Z,2.77
2018-08-27T07:24:10.841Z,4.57
2018-08-27T07:26:14.438Z,2.60
2018-08-27T07:28:17.966Z,3.90
2018-08-27T07:30:21.614Z,2.73
2018-08-27T07:32:25.196Z,3.53
2018-08-27T07:34:28.750Z,3.83
2018-08-27T07:36:32.450Z,3.43
2018-08-27T07:38:36.346Z,5.27
2018-08-27T07:40:39.929Z,4.97
2018-08-27T07:42:43.455Z,2.53
2018-08-27T07:44:47.240Z,3.93
2018-08-27T07:46:50.831Z,2.13
2018-08-27T07:48:54.457Z,3.20
2018-08-27T07:50:58.082Z,3.63
2018-08-27T07:53:02.857Z,2.90
2018-08-27T07:55:06.976Z,4.93
2018-08-27T07:57:10.686Z,3.43
2018-08-27T07:59:14.340Z,3.90
2018-08-27T08:01:17.950Z,2.83
2018-08-27T08:03:21.569Z,3.53
2018-08-27T08:05:25.504Z,2.97
2018-08-27T08:07:29.147Z,2.97
2018-08-27T08:09:33.252Z,3.97
2018-08-27T08:11:36.977Z,3.77
2018-08-27T08:13:40.737Z,2.77
2018-08-27T08:15:44.292Z,4.10
2018-08-27T08:17:48.099Z,3.90
2018-08-27T08:19:51.693Z,2.73
2018-08-27T08:21:55.314Z,4.87
2018-08-27T08:23:59.016Z,4.50
2018-08-27T08:26:02.779Z,3.77
2018-08-27T08:28:06.440Z,3.50
2018-08-27T08:30:10.039Z,3.57
2018-08-27T08:32:14.070Z,2.33
2018-08-27T08:34:17.632Z,4.40
2018-08-27T08:36:21.292Z,2.93
2018-08-27T08:38:25.093Z,3.77
2018-08-27T08:40:28.694Z,2.70
2018-08-27T08:42:32.317Z,3.80
2018-08-27T08:44:35.970Z,4.43
2018-08-27T08:46:39.525Z,3.67
2018-08-27T08:48:43.122Z,3.23
2018-08-27T08:50:46.745Z,2.93
2018-08-27T08:52:53.801Z,3.13
2018-08-27T08:54:57.390Z,2.27
2018-08-27T08:57:01.339Z,2.83
2018-08-27T08:59:05.105Z,3.70
2018-08-27T09:01:08.820Z,3.43
2018-08-27T09:03:12.707Z,4.07
2018-08-27T09:05:16.308Z,3.47
2018-08-27T09:07:20.322Z,3.10
2018-08-27T09:09:23.945Z,5.40
2018-08-27T09:11:28.811Z,4.60
2018-08-27T09:13:32.533Z,2.97
2018-08-27T09:15:37.359Z,4.63
2018-08-27T09:17:41.250Z,3.53
2018-08-27T09:19:44.934Z,3.13
2018-08-27T09:21:48.633Z,3.57
2018-08-27T09:23:52.713Z,5.53
2018-08-27T09:25:56.399Z,3.67
2018-08-27T09:28:00.103Z,3.50
2018-08-27T09:30:04.149Z,3.47
2018-08-27T09:32:07.936Z,5.43
2018-08-27T09:34:11.517Z,6.23
2018-08-27T09:36:15.076Z,4.23
2018-08-27T09:38:18.708Z,4.87
2018-08-27T09:40:22.369Z,4.00
2018-08-27T09:42:25.940Z,2.97
2018-08-27T09:44:29.465Z,5.60
2018-08-27T09:46:33.197Z,4.17
2018-08-27T09:48:36.732Z,4.23
2018-08-27T09:50:40.454Z,4.27
2018-08-27T09:52:44.073Z,3.33
2018-08-27T09:54:47.766Z,3.93
2018-08-27T09:56:51.275Z,5.83
2018-08-27T09:58:56.820Z,3.73
2018-08-27T10:01:05.903Z,3.03
2018-08-27T10:03:09.556Z,2.90
2018-08-27T10:05:13.236Z,4.83
2018-08-27T10:07:16.946Z,4.17
2018-08-27T10:09:20.549Z,5.33
2018-08-27T10:11:24.054Z,6.63
2018-08-27T10:13:27.641Z,2.23
2018-08-27T10:15:31.228Z,2.67
2018-08-27T10:17:34.768Z,3.20
2018-08-27T10:19:39.039Z,3.50
2018-08-27T10:21:44.831Z,3.67
2018-08-27T10:23:48.410Z,4.33
2018-08-27T10:25:52.023Z,6.00
2018-08-27T10:27:55.623Z,6.50
2018-08-27T10:29:59.358Z,3.93
2018-08-27T10:32:04.508Z,3.33
2018-08-27T10:34:10.965Z,5.23
2018-08-27T10:36:14.607Z,3.37
2018-08-27T10:38:18.270Z,4.03
2018-08-27T10:40:21.852Z,2.67
2018-08-27T10:42:25.393Z,5.10
2018-08-27T10:44:29.377Z,2.90
2018-08-27T10:46:33.030Z,3.57
2018-08-27T10:48:36.810Z,3.57
2018-08-27T10:50:40.343Z,5.33
2018-08-27T10:52:44.209Z,3.80
2018-08-27T10:54:47.803Z,3.60
2018-08-27T10:56:51.479Z,5.83
2018-08-27T10:58:55.247Z,2.40
2018-08-27T11:00:58.922Z,3.43
2018-08-27T11:03:02.697Z,8.23
2018-08-27T11:05:06.601Z,8.00
2018-08-27T11:07:10.675Z,2.80
2018-08-27T11:09:14.407Z,6.23
2018-08-27T11:11:18.182Z,4.40
2018-08-27T11:13:21.995Z,3.83
2018-08-27T11:15:26.514Z,5.57
2018-08-27T11:17:30.225Z,2.70
2018-08-27T11:19:33.995Z,3.20
2018-08-27T11:21:37.746Z,4.90
2018-08-27T11:23:41.586Z,3.53
2018-08-27T11:25:45.150Z,3.50
2018-08-27T11:27:48.949Z,7.93
2018-08-27T11:29:53.003Z,4.33
2018-08-27T11:31:57.207Z,3.70
2018-08-27T11:34:01.320Z,5.07
2018-08-27T11:36:06.213Z,5.40
2018-08-27T11:38:09.843Z,3.47
2018-08-27T11:40:14.233Z,5.87
2018-08-27T11:42:17.895Z,4.83
2018-08-27T11:44:22.039Z,3.03
2018-08-27T11:46:25.634Z,4.20
2018-08-27T11:48:29.258Z,3.80
2018-08-27T11:50:33.026Z,2.80
2018-08-27T11:52:37.499Z,6.33
2018-08-27T11:54:42.534Z,4.17
2018-08-27T11:56:46.675Z,5.03
2018-08-27T11:58:50.441Z,2.93
2018-08-27T12:00:59.088Z,5.30
2018-08-27T12:03:03.286Z,3.00
2018-08-27T12:05:09.463Z,4.73
2018-08-27T12:07:13.209Z,4.43
2018-08-27T12:09:17.187Z,3.23
2018-08-27T12:11:21.142Z,4.03
2018-08-27T12:13:24.955Z,5.07
2018-08-27T12:15:29.440Z,6.00
2018-08-27T12:17:34.347Z,3.27
2018-08-27T12:19:38.213Z,7.33
2018-08-27T12:21:41.872Z,3.60
2018-08-27T12:23:45.677Z,4.57
2018-08-27T12:25:49.479Z,5.93
2018-08-27T12:27:53.079Z,3.90
2018-08-27T12:29:57.828Z,3.13
2018-08-27T12:32:01.451Z,3.23
2018-08-27T12:34:05.103Z,4.53
2018-08-27T12:36:09.379Z,4.47
2018-08-27T12:38:13.485Z,5.37
2018-08-27T12:40:17.143Z,2.87
2018-08-27T12:42:20.891Z,4.77
2018-08-27T12:44:24.696Z,3.53
2018-08-27T12:46:28.315Z,2.80
2018-08-27T12:48:32.131Z,3.47
2018-08-27T12:50:36.065Z,6.67
2018-08-27T12:52:39.859Z,3.97
2018-08-27T12:54:44.072Z,4.67
2018-08-27T12:56:47.768Z,3.33
2018-08-27T12:58:51.587Z,5.53
2018-08-27T13:00:56.133Z,3.07
2018-08-27T13:03:00.854Z,2.77
2018-08-27T13:05:05.545Z,3.67
2018-08-27T13:07:09.207Z,3.60
2018-08-27T13:09:12.841Z,4.63
2018-08-27T13:11:16.871Z,3.23
2018-08-27T13:13:21.354Z,3.73
2018-08-27T13:15:24.970Z,5.53
2018-08-27T13:17:28.536Z,6.00
2018-08-27T13:19:33.720Z,2.27
2018-08-27T13:21:41.853Z,6.20
2018-08-27T13:23:45.414Z,3.77
2018-08-27T13:25:49.159Z,2.13
2018-08-27T13:27:54.555Z,3.23
2018-08-27T13:30:01.603Z,5.30
2018-08-27T13:32:05.852Z,5.10
2018-08-27T13:34:09.460Z,7.53
2018-08-27T13:36:13.473Z,4.80
2018-08-27T13:38:17.031Z,3.70
2018-08-27T13:40:20.647Z,2.83
2018-08-27T13:42:24.424Z,3.63
2018-08-27T13:44:28.106Z,3.80
2018-08-27T13:46:32.077Z,4.13
2018-08-27T13:48:36.215Z,2.00
2018-08-27T13:50:40.172Z,4.37
2018-08-27T13:52:44.668Z,6.30
2018-08-27T13:54:48.289Z,1.93
2018-08-27T13:56:52.095Z,2.97
2018-08-27T13:58:55.733Z,1.93
2018-08-27T14:00:59.391Z,3.00
2018-08-27T14:03:03.125Z,3.20
2018-08-27T14:05:07.775Z,3.40
2018-08-27T14:07:11.597Z,2.33
2018-08-27T14:09:15.248Z,2.63
2018-08-27T14:11:19.035Z,2.30
2018-08-27T14:13:22.533Z,3.00
2018-08-27T14:15:26.323Z,1.67
2018-08-27T14:17:29.932Z,4.50
2018-08-27T14:19:36.136Z,4.63
2018-08-27T14:21:39.757Z,3.27
2018-08-27T14:23:43.359Z,4.00
2018-08-27T14:25:46.950Z,4.33
2018-08-27T14:27:50.554Z,2.67
2018-08-27T14:29:54.619Z,3.63
2018-08-27T14:31:58.371Z,2.63
2018-08-27T14:34:02.082Z,3.10
2018-08-27T14:36:06.022Z,2.50
2018-08-27T14:38:09.938Z,3.83
2018-08-27T14:40:13.469Z,4.03
2018-08-27T14:42:17.196Z,4.03
2018-08-27T14:44:20.795Z,2.13
2018-08-27T14:46:24.314Z,4.17
2018-08-27T14:48:27.959Z,5.67
2018-08-27T14:50:31.488Z,3.43
2018-08-27T14:52:35.066Z,3.37
2018-08-27T14:54:38.629Z,3.70
2018-08-27T14:56:42.241Z,3.10
2018-08-27T14:58:45.778Z,3.37
2018-08-27T15:00:54.634Z,3.50
2018-08-27T15:02:58.202Z,3.80
2018-08-27T15:05:01.741Z,3.57
2018-08-27T15:07:05.287Z,3.00
2018-08-27T15:09:08.935Z,2.03
2018-08-27T15:11:13.220Z,3.87
2018-08-27T15:13:17.806Z,4.70
2018-08-27T15:15:21.844Z,2.27
2018-08-27T15:17:25.388Z,7.77
2018-08-27T15:19:28.899Z,4.20
2018-08-27T15:21:32.418Z,5.00
2018-08-27T15:23:36.025Z,2.93
2018-08-27T15:25:39.930Z,3.77
2018-08-27T15:27:43.427Z,2.57
2018-08-27T15:29:46.963Z,5.07
2018-08-27T15:31:50.540Z,3.57
2018-08-27T15:33:54.056Z,3.90
2018-08-27T15:35:57.663Z,2.50
2018-08-27T15:38:01.261Z,4.07
2018-08-27T15:40:04.913Z,4.03
2018-08-27T15:42:08.504Z,4.23
2018-08-27T15:44:12.162Z,3.20
2018-08-27T15:46:46.537Z,6.70
2018-08-27T15:48:50.332Z,3.40
2018-08-27T15:50:54.042Z,4.60
2018-08-27T15:52:57.738Z,3.30
2018-08-27T15:55:01.280Z,4.07
2018-08-27T15:57:05.041Z,2.43
2018-08-27T15:59:08.614Z,2.70
2018-08-27T16:01:13.944Z,4.50
2018-08-27T16:03:17.630Z,4.00
2018-08-27T16:05:21.367Z,4.63
2018-08-27T16:07:25.261Z,3.20
2018-08-27T16:09:28.820Z,4.67
2018-08-27T16:11:32.393Z,3.13
2018-08-27T16:13:36.117Z,3.80
2018-08-27T16:15:39.716Z,6.00
2018-08-27T16:17:43.293Z,6.47
2018-08-27T16:19:46.818Z,3.53
2018-08-27T16:21:50.571Z,2.83
2018-08-27T16:23:54.117Z,2.87
2018-08-27T16:25:57.788Z,2.60
2018-08-27T16:28:01.336Z,2.80
2018-08-27T16:30:05.000Z,3.43
2018-08-27T16:32:08.913Z,2.60
2018-08-27T16:34:12.491Z,3.13
2018-08-27T16:36:16.042Z,2.33
2018-08-27T16:38:19.555Z,4.10
2018-08-27T16:40:23.196Z,4.77
2018-08-27T16:42:26.716Z,4.73
2018-08-27T16:44:30.250Z,3.37
2018-08-27T16:46:33.834Z,1.73
2018-08-27T16:48:37.545Z,2.10
2018-08-27T16:50:41.140Z,3.30
2018-08-27T16:52:44.686Z,3.00
2018-08-27T16:54:48.269Z,3.13
2018-08-27T16:56:51.830Z,2.67
2018-08-27T16:58:55.393Z,2.90
2018-08-27T17:00:58.920Z,1.70
2018-08-27T17:03:02.473Z,3.57
2018-08-27T17:05:06.141Z,2.20
2018-08-27T17:07:09.704Z,2.70
2018-08-27T17:09:13.251Z,2.10
2018-08-27T17:11:16.847Z,4.23
2018-08-27T17:13:20.431Z,3.60
2018-08-27T17:15:23.904Z,2.77
2018-08-27T17:17:27.520Z,3.27
2018-08-27T17:19:31.252Z,5.07
2018-08-27T17:21:34.904Z,3.17
2018-08-27T17:23:38.398Z,4.87
2018-08-27T17:25:41.966Z,2.73
2018-08-27T17:27:45.545Z,2.20
2018-08-27T17:29:49.389Z,2.90
2018-08-27T17:31:53.084Z,2.97
2018-08-27T17:33:56.628Z,2.80
2018-08-27T17:36:00.191Z,2.10
2018-08-27T17:38:03.864Z,4.20
2018-08-27T17:40:07.850Z,2.30
2018-08-27T17:42:11.428Z,3.03
2018-08-27T17:44:14.933Z,3.60
2018-08-27T17:46:18.441Z,3.03
2018-08-27T17:48:21.979Z,3.03
2018-08-27T17:50:26.056Z,1.90
2018-08-27T17:52:29.740Z,2.73
2018-08-27T17:54:33.286Z,2.87
2018-08-27T17:56:36.841Z,2.87
2018-08-27T17:58:40.449Z,3.17
2018-08-27T18:00:44.160Z,3.77
2018-08-27T18:02:47.764Z,3.40
2018-08-27T18:04:51.464Z,4.13
2018-08-27T18:06:55.261Z,4.70
2018-08-27T18:08:58.813Z,3.10
2018-08-27T18:11:02.373Z,3.13
2018-08-27T18:13:06.640Z,3.43
2018-08-27T18:15:10.870Z,2.70
2018-08-27T18:17:14.415Z,3.20
2018-08-27T18:19:18.225Z,2.90
2018-08-27T18:21:22.002Z,4.20
2018-08-27T18:23:25.980Z,4.70
2018-08-27T18:25:29.614Z,2.83
2018-08-27T18:27:33.197Z,5.50
2018-08-27T18:29:36.756Z,3.00
2018-08-27T18:31:40.360Z,3.17
2018-08-27T18:33:43.925Z,2.50
2018-08-27T18:35:47.540Z,6.30
2018-08-27T18:37:51.100Z,6.30
2018-08-27T18:39:54.684Z,3.37
2018-08-27T18:41:58.412Z,4.10
2018-08-27T18:44:01.989Z,3.63
2018-08-27T18:46:05.728Z,2.57
2018-08-27T18:48:09.305Z,3.93
2018-08-27T18:50:12.951Z,3.23
2018-08-27T18:52:16.632Z,4.30
2018-08-27T18:54:20.397Z,2.70
2018-08-27T18:56:23.965Z,3.50
2018-08-27T18:58:27.551Z,3.27
2018-08-27T19:00:31.485Z,3.97
2018-08-27T19:02:35.096Z,3.13
2018-08-27T19:04:38.674Z,3.17
2018-08-27T19:06:42.490Z,4.20
2018-08-27T19:08:46.231Z,3.10
2018-08-27T19:10:49.775Z,3.63
2018-08-27T19:12:53.444Z,4.13
2018-08-27T19:14:56.921Z,3.07
2018-08-27T19:17:00.556Z,5.50
2018-08-27T19:19:04.108Z,3.23
2018-08-27T19:21:07.917Z,3.97
2018-08-27T19:23:11.633Z,2.67
2018-08-27T19:25:15.526Z,4.03
2018-08-27T19:27:19.345Z,4.43
2018-08-27T19:29:22.888Z,4.60
2018-08-27T19:31:26.481Z,3.83
2018-08-27T19:33:30.121Z,2.73
2018-08-27T19:35:33.851Z,3.33
2018-08-27T19:37:37.508Z,4.47
2018-08-27T19:39:41.045Z,3.07
2018-08-27T19:41:44.605Z,3.77
2018-08-27T19:43:48.119Z,3.03
2018-08-27T19:45:51.742Z,4.80
2018-08-27T19:47:55.503Z,3.63
2018-08-27T19:49:59.048Z,4.43
2018-08-27T19:52:02.598Z,3.63
2018-08-27T19:54:06.500Z,3.20
2018-08-27T19:56:10.155Z,5.47
2018-08-27T19:58:14.075Z,5.60
2018-08-27T20:00:17.596Z,3.33
2018-08-27T20:02:21.191Z,3.20
2018-08-27T20:04:24.829Z,6.13
2018-08-27T20:06:28.377Z,5.20
2018-08-27T20:08:31.984Z,3.10
2018-08-27T20:10:35.746Z,3.57
2018-08-27T20:12:39.666Z,4.77
2018-08-27T20:14:43.632Z,3.73
2018-08-27T20:16:47.384Z,4.20
2018-08-27T20:18:50.894Z,4.60
2018-08-27T20:20:54.389Z,4.17
2018-08-27T20:22:58.016Z,6.10
2018-08-27T20:25:01.563Z,4.27
2018-08-27T20:27:05.653Z,4.27
2018-08-27T20:29:09.227Z,3.90
2018-08-27T20:31:12.760Z,5.53
2018-08-27T20:33:16.347Z,5.10
2018-08-27T20:35:20.220Z,6.00
2018-08-27T20:37:23.728Z,5.13
2018-08-27T20:39:27.347Z,5.97
2018-08-27T20:41:30.948Z,4.53
2018-08-27T20:43:34.418Z,5.27
2018-08-27T20:45:38.072Z,5.60
2018-08-27T20:47:41.861Z,5.70
2018-08-27T20:49:45.348Z,5.77
2018-08-27T20:51:48.845Z,4.40
2018-08-27T20:53:52.393Z,6.13
2018-08-27T20:55:55.886Z,5.60
2018-08-27T20:57:59.397Z,8.20
2018-08-27T21:00:03.377Z,5.80
2018-08-27T21:02:07.353Z,7.23
2018-08-27T21:04:10.922Z,7.73
2018-08-27T21:06:14.564Z,5.87
2018-08-27T21:08:18.157Z,5.27
2018-08-27T21:10:22.052Z,7.23
2018-08-27T21:12:25.685Z,6.30
2018-08-27T21:15:14.552Z,6.60
2018-08-27T21:17:18.223Z,7.13
2018-08-27T21:19:21.731Z,6.43
2018-08-27T21:21:25.296Z,8.37
2018-08-27T21:23:28.863Z,8.13
2018-08-27T21:25:32.405Z,6.03
2018-08-27T21:27:36.415Z,7.47
2018-08-27T21:29:40.279Z,9.50
2018-08-27T21:31:43.795Z,8.67
2018-08-27T21:33:47.331Z,10.20
2018-08-27T21:35:50.873Z,11.70
2018-08-27T21:37:54.346Z,9.77
2018-08-27T21:39:57.941Z,9.50
2018-08-27T21:42:01.497Z,6.97
2018-08-27T21:44:05.072Z,7.90
2018-08-27T21:46:08.694Z,9.80
2018-08-27T21:48:12.262Z,9.57
2018-08-27T21:50:15.797Z,9.80
2018-08-27T21:52:19.325Z,7.60
2018-08-27T21:54:22.887Z,9.07
2018-08-27T21:56:26.431Z,8.57
2018-08-27T21:58:29.996Z,7.33
2018-08-27T22:00:37.299Z,10.43
2018-08-27T22:02:46.221Z,9.00
2018-08-27T22:04:50.164Z,10.57
2018-08-27T22:06:53.651Z,11.47
2018-08-27T22:08:57.183Z,10.70
2018-08-27T22:11:01.084Z,10.80
2018-08-27T22:13:04.572Z,11.57
2018-08-27T22:15:08.536Z,10.97
2018-08-27T22:17:12.089Z,11.83
2018-08-27T22:19:15.641Z,12.27
2018-08-27T22:21:19.200Z,10.37
2018-08-27T22:23:22.777Z,12.30
2018-08-27T22:25:26.353Z,10.23
2018-08-27T22:27:29.900Z,9.03
2018-08-27T22:29:33.799Z,13.07
2018-08-27T22:31:37.312Z,9.97
2018-08-27T22:33:40.843Z,9.30
2018-08-27T22:35:44.370Z,9.43
2018-08-27T22:37:47.927Z,11.90
2018-08-27T22:39:51.528Z,10.40
2018-08-27T22:41:55.085Z,10.10
2018-08-27T22:43:58.649Z,11.17
2018-08-27T22:46:02.220Z,10.67
2018-08-27T22:48:05.797Z,7.80
2018-08-27T22:50:09.447Z,11.07
2018-08-27T22:52:13.618Z,8.47
2018-08-27T22:54:17.218Z,9.47
2018-08-27T22:56:20.756Z,8.23
2018-08-27T22:58:24.280Z,8.37
2018-08-27T23:00:27.950Z,11.33
2018-08-27T23:02:36.835Z,9.07
2018-08-27T23:04:45.558Z,11.77
2018-08-27T23:06:49.140Z,10.03
2018-08-27T23:08:52.692Z,10.00
2018-08-27T23:10:56.235Z,12.13
2018-08-27T23:12:59.821Z,11.20
2018-08-27T23:15:03.881Z,10.37
2018-08-27T23:17:07.436Z,11.50
2018-08-27T23:19:11.033Z,8.57
2018-08-27T23:21:14.585Z,10.53
2018-08-27T23:23:18.125Z,9.30
2018-08-27T23:25:21.708Z,13.17
2018-08-27T23:27:25.270Z,11.90
2018-08-27T23:29:28.816Z,9.73
2018-08-27T23:31:32.382Z,11.20
2018-08-27T23:33:35.915Z,10.07
2018-08-27T23:35:39.414Z,12.07
2018-08-27T23:37:42.967Z,10.33
2018-08-27T23:39:46.593Z,11.30
2018-08-27T23:41:50.332Z,10.43
2018-08-27T23:43:53.930Z,9.50
2018-08-27T23:45:57.556Z,10.53
2018-08-27T23:48:01.093Z,11.73
2018-08-27T23:50:04.696Z,10.57
2018-08-27T23:52:08.234Z,10.30
2018-08-27T23:54:11.775Z,11.17
2018-08-27T23:56:15.265Z,10.97
2018-08-27T23:58:18.829Z,14.70
